sensor_id;sensor_type;location;lat;lon;timestamp;P1;durP1;ratioP1;P2;durP2;ratioP2
7001;SDS011;3541;53.230;10.518;2024-01-10T00:00:58;14.13;;;7.87;;
7001;SDS011;3541;53.230;10.518;2024-01-10T00:03:26;12.50;;;8.40;;
7001;SDS011;3541;53.230;10.518;2024-01-10T00:05:53;11.27;;;7.60;;
7001;SDS011;3541;53.230;10.518;2024-01-10T00:08:20;10.93;;;8.07;;
7001;SDS011;3541;53.230;10.518;2024-01-10T00:10:47;12.33;;;8.67;;
7001;SDS011;3541;53.230;10.518;2024-01-10T00:13:13;12.67;;;8.23;;
7001;SDS011;3541;53.230;10.518;2024-01-10T00:15:40;13.03;;;8.97;;
7001;SDS011;3541;53.230;10.518;2024-01-10T00:18:06;12.10;;;7.77;;
7001;SDS011;3541;53.230;10.518;2024-01-10T00:20:34;12.50;;;8.53;;
7001;SDS011;3541;53.230;10.518;2024-01-10T00:23:01;13.10;;;8.23;;
7001;SDS011;3541;53.230;10.518;2024-01-10T00:25:27;11.77;;;8.33;;
7001;SDS011;3541;53.230;10.518;2024-01-10T00:27:54;12.33;;;8.50;;
7001;SDS011;3541;53.230;10.518;2024-01-10T00:30:21;12.03;;;8.70;;
7001;SDS011;3541;53.230;10.518;2024-01-10T00:32:47;13.50;;;7.73;;
7001;SDS011;3541;53.230;10.518;2024-01-10T00:35:14;10.80;;;7.90;;
7001;SDS011;3541;53.230;10.518;2024-01-10T00:37:42;12.93;;;7.90;;
7001;SDS011;3541;53.230;10.518;2024-01-10T00:40:09;14.73;;;8.77;;
7001;SDS011;3541;53.230;10.518;2024-01-10T00:42:36;15.30;;;7.93;;
7001;SDS011;3541;53.230;10.518;2024-01-10T00:45:03;14.63;;;8.53;;
7001;SDS011;3541;53.230;10.518;2024-01-10T00:47:30;14.13;;;7.47;;
7001;SDS011;3541;53.230;10.518;2024-01-10T00:49:56;14.97;;;8.30;;
7001;SDS011;3541;53.230;10.518;2024-01-10T00:52:23;13.43;;;8.43;;
7001;SDS011;3541;53.230;10.518;2024-01-10T00:54:51;11.73;;;8.17;;
7001;SDS011;3541;53.230;10.518;2024-01-10T00:57:17;11.47;;;7.67;;
7001;SDS011;3541;53.230;10.518;2024-01-10T00:59:44;14.23;;;8.57;;
7001;SDS011;3541;53.230;10.518;2024-01-10T01:02:10;11.93;;;8.13;;
7001;SDS011;3541;53.230;10.518;2024-01-10T01:04:37;11.37;;;7.57;;
7001;SDS011;3541;53.230;10.518;2024-01-10T01:07:03;11.67;;;7.87;;
7001;SDS011;3541;53.230;10.518;2024-01-10T01:09:30;12.40;;;8.20;;
7001;SDS011;3541;53.230;10.518;2024-01-10T01:11:58;11.03;;;7.37;;
7001;SDS011;3541;53.230;10.518;2024-01-10T01:14:24;11.77;;;8.40;;
7001;SDS011;3541;53.230;10.518;2024-01-10T01:16:51;11.60;;;7.80;;
7001;SDS011;3541;53.230;10.518;2024-01-10T01:19:18;12.40;;;8.03;;
7001;SDS011;3541;53.230;10.518;2024-01-10T01:21:44;12.30;;;7.97;;
7001;SDS011;3541;53.230;10.518;2024-01-10T01:24:11;12.53;;;8.23;;
7001;SDS011;3541;53.230;10.518;2024-01-10T01:26:37;12.50;;;7.70;;
7001;SDS011;3541;53.230;10.518;2024-01-10T01:29:05;12.53;;;8.33;;
7001;SDS011;3541;53.230;10.518;2024-01-10T01:31:33;14.00;;;7.87;;
7001;SDS011;3541;53.230;10.518;2024-01-10T01:34:00;13.13;;;7.57;;
7001;SDS011;3541;53.230;10.518;2024-01-10T01:36:26;15.03;;;9.00;;
7001;SDS011;3541;53.230;10.518;2024-01-10T01:38:53;14.30;;;8.40;;
7001;SDS011;3541;53.230;10.518;2024-01-10T01:41:19;10.87;;;7.93;;
7001;SDS011;3541;53.230;10.518;2024-01-10T01:43:46;11.57;;;7.17;;
7001;SDS011;3541;53.230;10.518;2024-01-10T01:46:14;10.17;;;6.80;;
7001;SDS011;3541;53.230;10.518;2024-01-10T01:48:41;13.23;;;7.30;;
7001;SDS011;3541;53.230;10.518;2024-01-10T01:51:08;12.77;;;7.80;;
7001;SDS011;3541;53.230;10.518;2024-01-10T01:53:37;14.37;;;8.00;;
7001;SDS011;3541;53.230;10.518;2024-01-10T01:56:05;12.53;;;7.90;;
7001;SDS011;3541;53.230;10.518;2024-01-10T01:58:33;11.40;;;7.57;;
7001;SDS011;3541;53.230;10.518;2024-01-10T02:01:00;12.33;;;7.57;;
7001;SDS011;3541;53.230;10.518;2024-01-10T02:03:30;11.70;;;7.17;;
7001;SDS011;3541;53.230;10.518;2024-01-10T02:05:57;12.07;;;7.17;;
7001;SDS011;3541;53.230;10.518;2024-01-10T02:08:23;11.50;;;7.70;;
7001;SDS011;3541;53.230;10.518;2024-01-10T02:10:50;11.73;;;7.67;;
7001;SDS011;3541;53.230;10.518;2024-01-10T02:13:17;9.30;;;7.03;;
7001;SDS011;3541;53.230;10.518;2024-01-10T02:15:44;10.30;;;6.67;;
7001;SDS011;3541;53.230;10.518;2024-01-10T02:18:11;9.73;;;6.30;;
7001;SDS011;3541;53.230;10.518;2024-01-10T02:20:42;12.00;;;7.17;;
7001;SDS011;3541;53.230;10.518;2024-01-10T02:23:09;11.53;;;7.53;;
7001;SDS011;3541;53.230;10.518;2024-01-10T02:25:37;11.93;;;7.70;;
7001;SDS011;3541;53.230;10.518;2024-01-10T02:28:04;12.63;;;7.30;;
7001;SDS011;3541;53.230;10.518;2024-01-10T02:30:31;11.57;;;7.73;;
7001;SDS011;3541;53.230;10.518;2024-01-10T02:32:58;12.47;;;8.03;;
7001;SDS011;3541;53.230;10.518;2024-01-10T02:35:25;12.70;;;8.23;;
7001;SDS011;3541;53.230;10.518;2024-01-10T02:37:51;12.30;;;8.27;;
7001;SDS011;3541;53.230;10.518;2024-01-10T02:40:19;9.77;;;7.10;;
7001;SDS011;3541;53.230;10.518;2024-01-10T02:42:47;13.07;;;8.77;;
7001;SDS011;3541;53.230;10.518;2024-01-10T02:45:13;15.93;;;9.27;;
7001;SDS011;3541;53.230;10.518;2024-01-10T02:47:40;14.67;;;8.90;;
7001;SDS011;3541;53.230;10.518;2024-01-10T02:50:07;15.80;;;8.63;;
7001;SDS011;3541;53.230;10.518;2024-01-10T02:52:34;11.90;;;8.77;;
7001;SDS011;3541;53.230;10.518;2024-01-10T02:55:00;13.73;;;8.80;;
7001;SDS011;3541;53.230;10.518;2024-01-10T02:57:27;12.10;;;9.03;;
7001;SDS011;3541;53.230;10.518;2024-01-10T02:59:55;17.93;;;9.27;;
7001;SDS011;3541;53.230;10.518;2024-01-10T03:02:21;16.03;;;10.33;;
7001;SDS011;3541;53.230;10.518;2024-01-10T03:04:49;14.70;;;10.20;;
7001;SDS011;3541;53.230;10.518;2024-01-10T03:07:15;17.67;;;10.40;;
7001;SDS011;3541;53.230;10.518;2024-01-10T03:09:42;17.67;;;10.40;;
7001;SDS011;3541;53.230;10.518;2024-01-10T03:12:09;15.07;;;9.90;;
7001;SDS011;3541;53.230;10.518;2024-01-10T03:14:36;15.17;;;9.33;;
7001;SDS011;3541;53.230;10.518;2024-01-10T03:17:04;15.80;;;9.57;;
7001;SDS011;3541;53.230;10.518;2024-01-10T03:19:31;16.37;;;9.70;;
7001;SDS011;3541;53.230;10.518;2024-01-10T03:21:57;14.80;;;9.83;;
7001;SDS011;3541;53.230;10.518;2024-01-10T03:24:24;14.03;;;9.07;;
7001;SDS011;3541;53.230;10.518;2024-01-10T03:26:52;15.67;;;9.17;;
7001;SDS011;3541;53.230;10.518;2024-01-10T03:29:18;15.43;;;9.37;;
7001;SDS011;3541;53.230;10.518;2024-01-10T03:31:45;17.57;;;10.17;;
7001;SDS011;3541;53.230;10.518;2024-01-10T03:34:13;16.67;;;9.70;;
7001;SDS011;3541;53.230;10.518;2024-01-10T03:36:41;15.47;;;9.60;;
7001;SDS011;3541;53.230;10.518;2024-01-10T03:39:08;14.53;;;9.00;;
7001;SDS011;3541;53.230;10.518;2024-01-10T03:41:35;14.77;;;9.20;;
7001;SDS011;3541;53.230;10.518;2024-01-10T03:44:02;13.83;;;8.83;;
7001;SDS011;3541;53.230;10.518;2024-01-10T03:46:28;16.40;;;9.13;;
7001;SDS011;3541;53.230;10.518;2024-01-10T03:48:55;15.50;;;9.57;;
7001;SDS011;3541;53.230;10.518;2024-01-10T03:51:23;12.67;;;9.07;;
7001;SDS011;3541;53.230;10.518;2024-01-10T03:53:50;16.00;;;9.07;;
7001;SDS011;3541;53.230;10.518;2024-01-10T03:56:16;14.77;;;9.13;;
7001;SDS011;3541;53.230;10.518;2024-01-10T03:58:43;14.27;;;8.93;;
7001;SDS011;3541;53.230;10.518;2024-01-10T04:01:09;15.33;;;9.27;;
7001;SDS011;3541;53.230;10.518;2024-01-10T04:03:36;17.70;;;10.07;;
7001;SDS011;3541;53.230;10.518;2024-01-10T04:06:03;13.83;;;9.50;;
7001;SDS011;3541;53.230;10.518;2024-01-10T04:08:31;13.90;;;9.03;;
7001;SDS011;3541;53.230;10.518;2024-01-10T04:10:58;18.37;;;9.47;;
7001;SDS011;3541;53.230;10.518;2024-01-10T04:13:25;15.80;;;9.80;;
7001;SDS011;3541;53.230;10.518;2024-01-10T04:15:51;17.97;;;9.40;;
7001;SDS011;3541;53.230;10.518;2024-01-10T04:18:18;15.83;;;10.13;;
7001;SDS011;3541;53.230;10.518;2024-01-10T04:20:44;14.70;;;9.43;;
7001;SDS011;3541;53.230;10.518;2024-01-10T04:23:11;15.07;;;9.37;;
7001;SDS011;3541;53.230;10.518;2024-01-10T04:25:39;15.57;;;9.80;;
7001;SDS011;3541;53.230;10.518;2024-01-10T04:28:06;17.80;;;10.50;;
7001;SDS011;3541;53.230;10.518;2024-01-10T04:30:32;19.27;;;10.27;;
7001;SDS011;3541;53.230;10.518;2024-01-10T04:32:59;16.13;;;10.00;;
7001;SDS011;3541;53.230;10.518;2024-01-10T04:35:26;16.80;;;10.60;;
7001;SDS011;3541;53.230;10.518;2024-01-10T04:37:52;18.77;;;10.70;;
7001;SDS011;3541;53.230;10.518;2024-01-10T04:40:19;19.20;;;10.90;;
7001;SDS011;3541;53.230;10.518;2024-01-10T04:42:47;19.03;;;10.77;;
7001;SDS011;3541;53.230;10.518;2024-01-10T04:45:13;16.80;;;10.40;;
7001;SDS011;3541;53.230;10.518;2024-01-10T04:47:40;18.07;;;10.67;;
7001;SDS011;3541;53.230;10.518;2024-01-10T04:50:07;16.57;;;10.27;;
7001;SDS011;3541;53.230;10.518;2024-01-10T04:52:34;19.50;;;10.43;;
7001;SDS011;3541;53.230;10.518;2024-01-10T04:55:01;21.20;;;11.23;;
7001;SDS011;3541;53.230;10.518;2024-01-10T04:57:27;16.87;;;10.60;;
7001;SDS011;3541;53.230;10.518;2024-01-10T04:59:55;19.17;;;10.83;;
7001;SDS011;3541;53.230;10.518;2024-01-10T05:02:22;14.97;;;9.50;;
7001;SDS011;3541;53.230;10.518;2024-01-10T05:04:49;16.93;;;9.97;;
7001;SDS011;3541;53.230;10.518;2024-01-10T05:07:15;18.30;;;9.60;;
7001;SDS011;3541;53.230;10.518;2024-01-10T05:09:42;17.40;;;10.63;;
7001;SDS011;3541;53.230;10.518;2024-01-10T05:12:09;17.63;;;9.77;;
7001;SDS011;3541;53.230;10.518;2024-01-10T05:14:35;14.90;;;9.53;;
7001;SDS011;3541;53.230;10.518;2024-01-10T05:17:03;22.73;;;10.83;;
7001;SDS011;3541;53.230;10.518;2024-01-10T05:19:30;13.60;;;9.87;;
7001;SDS011;3541;53.230;10.518;2024-01-10T05:21:57;15.57;;;10.03;;
7001;SDS011;3541;53.230;10.518;2024-01-10T05:24:23;19.77;;;10.90;;
7001;SDS011;3541;53.230;10.518;2024-01-10T05:26:50;16.87;;;10.17;;
7001;SDS011;3541;53.230;10.518;2024-01-10T05:29:17;16.13;;;9.97;;
7001;SDS011;3541;53.230;10.518;2024-01-10T05:31:44;17.37;;;9.80;;
7001;SDS011;3541;53.230;10.518;2024-01-10T05:34:12;18.73;;;9.90;;
7001;SDS011;3541;53.230;10.518;2024-01-10T05:36:39;18.87;;;10.50;;
7001;SDS011;3541;53.230;10.518;2024-01-10T05:39:05;21.67;;;11.97;;
7001;SDS011;3541;53.230;10.518;2024-01-10T05:41:32;18.60;;;10.40;;
7001;SDS011;3541;53.230;10.518;2024-01-10T05:43:59;17.27;;;10.10;;
7001;SDS011;3541;53.230;10.518;2024-01-10T05:46:25;17.63;;;9.97;;
7001;SDS011;3541;53.230;10.518;2024-01-10T05:48:53;18.57;;;11.30;;
7001;SDS011;3541;53.230;10.518;2024-01-10T05:51:21;17.03;;;10.63;;
7001;SDS011;3541;53.230;10.518;2024-01-10T05:53:47;19.80;;;11.67;;
7001;SDS011;3541;53.230;10.518;2024-01-10T05:56:14;18.17;;;9.90;;
7001;SDS011;3541;53.230;10.518;2024-01-10T05:58:40;18.80;;;9.83;;
7001;SDS011;3541;53.230;10.518;2024-01-10T06:01:07;19.03;;;11.23;;
7001;SDS011;3541;53.230;10.518;2024-01-10T06:03:35;19.90;;;10.07;;
7001;SDS011;3541;53.230;10.518;2024-01-10T06:06:01;18.47;;;11.43;;
7001;SDS011;3541;53.230;10.518;2024-01-10T06:08:29;20.77;;;11.20;;
7001;SDS011;3541;53.230;10.518;2024-01-10T06:10:56;20.67;;;11.53;;
7001;SDS011;3541;53.230;10.518;2024-01-10T06:13:22;23.57;;;10.73;;
7001;SDS011;3541;53.230;10.518;2024-01-10T06:15:49;20.87;;;12.07;;
7001;SDS011;3541;53.230;10.518;2024-01-10T06:18:16;23.20;;;11.57;;
7001;SDS011;3541;53.230;10.518;2024-01-10T06:20:42;20.63;;;10.93;;
7001;SDS011;3541;53.230;10.518;2024-01-10T06:23:09;21.00;;;10.40;;
7001;SDS011;3541;53.230;10.518;2024-01-10T06:25:37;19.23;;;10.57;;
7001;SDS011;3541;53.230;10.518;2024-01-10T06:28:03;20.70;;;11.10;;
7001;SDS011;3541;53.230;10.518;2024-01-10T06:30:30;18.63;;;10.17;;
7001;SDS011;3541;53.230;10.518;2024-01-10T06:32:57;19.23;;;10.57;;
7001;SDS011;3541;53.230;10.518;2024-01-10T06:35:23;20.27;;;10.83;;
7001;SDS011;3541;53.230;10.518;2024-01-10T06:37:50;18.43;;;10.80;;
7001;SDS011;3541;53.230;10.518;2024-01-10T06:40:16;19.13;;;10.20;;
7001;SDS011;3541;53.230;10.518;2024-01-10T06:42:44;22.67;;;12.83;;
7001;SDS011;3541;53.230;10.518;2024-01-10T06:45:12;23.60;;;12.77;;
7001;SDS011;3541;53.230;10.518;2024-01-10T06:47:39;20.93;;;12.20;;
7001;SDS011;3541;53.230;10.518;2024-01-10T06:50:06;25.20;;;12.10;;
7001;SDS011;3541;53.230;10.518;2024-01-10T06:52:33;20.07;;;11.47;;
7001;SDS011;3541;53.230;10.518;2024-01-10T06:55:00;22.30;;;11.80;;
7001;SDS011;3541;53.230;10.518;2024-01-10T06:57:29;19.27;;;10.37;;
7001;SDS011;3541;53.230;10.518;2024-01-10T06:59:57;21.43;;;11.13;;
7001;SDS011;3541;53.230;10.518;2024-01-10T07:02:24;18.70;;;10.20;;
7001;SDS011;3541;53.230;10.518;2024-01-10T07:04:50;20.87;;;11.57;;
7001;SDS011;3541;53.230;10.518;2024-01-10T07:07:17;19.37;;;10.13;;
7001;SDS011;3541;53.230;10.518;2024-01-10T07:09:43;18.27;;;11.10;;
7001;SDS011;3541;53.230;10.518;2024-01-10T07:12:10;19.07;;;10.83;;
7001;SDS011;3541;53.230;10.518;2024-01-10T07:14:37;21.40;;;11.57;;
7001;SDS011;3541;53.230;10.518;2024-01-10T07:17:05;18.13;;;11.33;;
7001;SDS011;3541;53.230;10.518;2024-01-10T07:19:32;21.50;;;11.47;;
7001;SDS011;3541;53.230;10.518;2024-01-10T07:21:59;19.13;;;11.20;;
7001;SDS011;3541;53.230;10.518;2024-01-10T07:24:26;19.33;;;10.43;;
7001;SDS011;3541;53.230;10.518;2024-01-10T07:26:52;18.73;;;10.37;;
7001;SDS011;3541;53.230;10.518;2024-01-10T07:29:19;22.90;;;11.73;;
7001;SDS011;3541;53.230;10.518;2024-01-10T07:31:46;22.40;;;11.70;;
7001;SDS011;3541;53.230;10.518;2024-01-10T07:34:14;21.73;;;11.87;;
7001;SDS011;3541;53.230;10.518;2024-01-10T07:36:41;23.63;;;12.20;;
7001;SDS011;3541;53.230;10.518;2024-01-10T07:39:08;19.70;;;11.67;;
7001;SDS011;3541;53.230;10.518;2024-01-10T07:41:34;19.97;;;11.60;;
7001;SDS011;3541;53.230;10.518;2024-01-10T07:44:01;23.97;;;13.03;;
7001;SDS011;3541;53.230;10.518;2024-01-10T07:46:29;26.77;;;13.47;;
7001;SDS011;3541;53.230;10.518;2024-01-10T07:48:55;22.67;;;12.70;;
7001;SDS011;3541;53.230;10.518;2024-01-10T07:51:23;25.00;;;12.73;;
7001;SDS011;3541;53.230;10.518;2024-01-10T07:53:50;20.00;;;11.50;;
7001;SDS011;3541;53.230;10.518;2024-01-10T07:56:16;18.90;;;10.97;;
7001;SDS011;3541;53.230;10.518;2024-01-10T07:58:44;19.00;;;9.83;;
7001;SDS011;3541;53.230;10.518;2024-01-10T08:01:11;18.07;;;10.63;;
7001;SDS011;3541;53.230;10.518;2024-01-10T08:03:38;17.73;;;10.23;;
7001;SDS011;3541;53.230;10.518;2024-01-10T08:06:04;21.27;;;10.77;;
7001;SDS011;3541;53.230;10.518;2024-01-10T08:08:32;17.43;;;10.10;;
7001;SDS011;3541;53.230;10.518;2024-01-10T08:10:59;16.83;;;10.07;;
7001;SDS011;3541;53.230;10.518;2024-01-10T08:13:25;16.40;;;9.40;;
7001;SDS011;3541;53.230;10.518;2024-01-10T08:15:52;17.13;;;9.77;;
7001;SDS011;3541;53.230;10.518;2024-01-10T08:18:19;15.83;;;8.63;;
7001;SDS011;3541;53.230;10.518;2024-01-10T08:20:46;15.57;;;9.17;;
7001;SDS011;3541;53.230;10.518;2024-01-10T08:23:13;17.70;;;9.07;;
7001;SDS011;3541;53.230;10.518;2024-01-10T08:25:41;15.83;;;8.53;;
7001;SDS011;3541;53.230;10.518;2024-01-10T08:28:09;16.27;;;9.00;;
7001;SDS011;3541;53.230;10.518;2024-01-10T08:30:35;16.67;;;9.23;;
7001;SDS011;3541;53.230;10.518;2024-01-10T08:33:02;16.47;;;9.47;;
7001;SDS011;3541;53.230;10.518;2024-01-10T08:35:30;16.27;;;8.63;;
7001;SDS011;3541;53.230;10.518;2024-01-10T08:37:57;17.20;;;9.03;;
7001;SDS011;3541;53.230;10.518;2024-01-10T08:40:23;16.10;;;9.33;;
7001;SDS011;3541;53.230;10.518;2024-01-10T08:42:51;18.40;;;9.33;;
7001;SDS011;3541;53.230;10.518;2024-01-10T08:45:18;17.67;;;9.80;;
7001;SDS011;3541;53.230;10.518;2024-01-10T08:47:44;16.90;;;9.63;;
7001;SDS011;3541;53.230;10.518;2024-01-10T08:50:11;18.53;;;9.73;;
7001;SDS011;3541;53.230;10.518;2024-01-10T08:52:38;17.60;;;9.17;;
7001;SDS011;3541;53.230;10.518;2024-01-10T08:55:04;17.43;;;9.93;;
7001;SDS011;3541;53.230;10.518;2024-01-10T08:57:31;18.20;;;9.30;;
7001;SDS011;3541;53.230;10.518;2024-01-10T08:59:59;18.47;;;9.57;;
7001;SDS011;3541;53.230;10.518;2024-01-10T09:02:26;16.83;;;9.67;;
7001;SDS011;3541;53.230;10.518;2024-01-10T09:04:52;17.40;;;9.37;;
7001;SDS011;3541;53.230;10.518;2024-01-10T09:07:19;18.10;;;10.13;;
7001;SDS011;3541;53.230;10.518;2024-01-10T09:09:46;16.87;;;9.23;;
7001;SDS011;3541;53.230;10.518;2024-01-10T09:12:13;19.47;;;10.83;;
7001;SDS011;3541;53.230;10.518;2024-01-10T09:14:39;21.23;;;10.97;;
7001;SDS011;3541;53.230;10.518;2024-01-10T09:17:07;21.87;;;10.10;;
7001;SDS011;3541;53.230;10.518;2024-01-10T09:19:34;19.23;;;10.40;;
7001;SDS011;3541;53.230;10.518;2024-01-10T09:22:00;21.13;;;10.13;;
7001;SDS011;3541;53.230;10.518;2024-01-10T09:24:27;17.30;;;9.07;;
7001;SDS011;3541;53.230;10.518;2024-01-10T09:26:54;20.20;;;10.17;;
7001;SDS011;3541;53.230;10.518;2024-01-10T09:29:22;23.90;;;10.43;;
7001;SDS011;3541;53.230;10.518;2024-01-10T09:31:49;22.50;;;11.07;;
7001;SDS011;3541;53.230;10.518;2024-01-10T09:34:17;20.17;;;10.87;;
7001;SDS011;3541;53.230;10.518;2024-01-10T09:36:44;17.93;;;9.43;;
7001;SDS011;3541;53.230;10.518;2024-01-10T09:39:10;20.47;;;10.10;;
7001;SDS011;3541;53.230;10.518;2024-01-10T09:41:40;20.77;;;9.33;;
7001;SDS011;3541;53.230;10.518;2024-01-10T09:44:12;16.03;;;8.53;;
7001;SDS011;3541;53.230;10.518;2024-01-10T09:46:38;17.93;;;9.13;;
7001;SDS011;3541;53.230;10.518;2024-01-10T09:49:09;18.67;;;8.53;;
7001;SDS011;3541;53.230;10.518;2024-01-10T09:51:37;15.07;;;8.53;;
7001;SDS011;3541;53.230;10.518;2024-01-10T09:54:04;21.07;;;10.20;;
7001;SDS011;3541;53.230;10.518;2024-01-10T09:56:31;16.73;;;9.00;;
7001;SDS011;3541;53.230;10.518;2024-01-10T09:58:58;17.30;;;9.40;;
7001;SDS011;3541;53.230;10.518;2024-01-10T10:01:29;19.13;;;9.10;;
7001;SDS011;3541;53.230;10.518;2024-01-10T10:03:56;14.93;;;8.73;;
7001;SDS011;3541;53.230;10.518;2024-01-10T10:06:24;17.63;;;8.40;;
7001;SDS011;3541;53.230;10.518;2024-01-10T10:08:52;20.07;;;9.53;;
7001;SDS011;3541;53.230;10.518;2024-01-10T10:11:18;17.20;;;8.33;;
7001;SDS011;3541;53.230;10.518;2024-01-10T10:13:45;18.07;;;9.37;;
7001;SDS011;3541;53.230;10.518;2024-01-10T10:16:11;17.20;;;8.97;;
7001;SDS011;3541;53.230;10.518;2024-01-10T10:18:39;16.80;;;8.87;;
7001;SDS011;3541;53.230;10.518;2024-01-10T10:21:08;17.57;;;9.00;;
7001;SDS011;3541;53.230;10.518;2024-01-10T10:23:36;16.20;;;8.63;;
7001;SDS011;3541;53.230;10.518;2024-01-10T10:26:14;16.87;;;8.67;;
7001;SDS011;3541;53.230;10.518;2024-01-10T10:28:45;15.67;;;8.77;;
7001;SDS011;3541;53.230;10.518;2024-01-10T10:31:12;17.70;;;9.33;;
7001;SDS011;3541;53.230;10.518;2024-01-10T10:33:39;17.27;;;8.90;;
7001;SDS011;3541;53.230;10.518;2024-01-10T10:36:06;14.87;;;7.63;;
7001;SDS011;3541;53.230;10.518;2024-01-10T10:38:33;16.33;;;7.97;;
7001;SDS011;3541;53.230;10.518;2024-01-10T10:41:01;23.93;;;9.97;;
7001;SDS011;3541;53.230;10.518;2024-01-10T10:43:32;16.40;;;8.70;;
7001;SDS011;3541;53.230;10.518;2024-01-10T10:46:01;18.57;;;9.50;;
7001;SDS011;3541;53.230;10.518;2024-01-10T10:48:27;13.77;;;7.37;;
7001;SDS011;3541;53.230;10.518;2024-01-10T10:51:04;16.20;;;8.07;;
7001;SDS011;3541;53.230;10.518;2024-01-10T10:53:32;15.67;;;7.90;;
7001;SDS011;3541;53.230;10.518;2024-01-10T10:56:00;19.50;;;9.23;;
7001;SDS011;3541;53.230;10.518;2024-01-10T10:58:29;20.37;;;9.83;;
7001;SDS011;3541;53.230;10.518;2024-01-10T11:01:01;17.50;;;10.07;;
7001;SDS011;3541;53.230;10.518;2024-01-10T11:03:31;16.23;;;9.30;;
7001;SDS011;3541;53.230;10.518;2024-01-10T11:06:00;17.27;;;9.07;;
7001;SDS011;3541;53.230;10.518;2024-01-10T11:08:28;19.03;;;9.97;;
7001;SDS011;3541;53.230;10.518;2024-01-10T11:10:58;18.03;;;9.57;;
7001;SDS011;3541;53.230;10.518;2024-01-10T11:13:27;18.53;;;9.40;;
7001;SDS011;3541;53.230;10.518;2024-01-10T11:19:04;20.37;;;10.20;;
7001;SDS011;3541;53.230;10.518;2024-01-10T11:21:43;19.07;;;9.33;;
7001;SDS011;3541;53.230;10.518;2024-01-10T11:24:21;18.63;;;9.40;;
7001;SDS011;3541;53.230;10.518;2024-01-10T11:26:49;19.83;;;9.77;;
7001;SDS011;3541;53.230;10.518;2024-01-10T11:29:15;18.13;;;10.33;;
7001;SDS011;3541;53.230;10.518;2024-01-10T11:31:43;20.03;;;10.20;;
7001;SDS011;3541;53.230;10.518;2024-01-10T11:34:16;20.80;;;10.37;;
7001;SDS011;3541;53.230;10.518;2024-01-10T11:39:36;19.10;;;10.37;;
7001;SDS011;3541;53.230;10.518;2024-01-10T11:42:03;18.37;;;9.60;;
7001;SDS011;3541;53.230;10.518;2024-01-10T11:44:30;21.93;;;9.63;;
7001;SDS011;3541;53.230;10.518;2024-01-10T11:46:59;18.07;;;9.90;;
7001;SDS011;3541;53.230;10.518;2024-01-10T11:49:26;19.70;;;9.47;;
7001;SDS011;3541;53.230;10.518;2024-01-10T11:51:53;18.50;;;9.60;;
7001;SDS011;3541;53.230;10.518;2024-01-10T11:54:37;16.33;;;9.13;;
7001;SDS011;3541;53.230;10.518;2024-01-10T11:57:11;16.57;;;9.07;;
7001;SDS011;3541;53.230;10.518;2024-01-10T11:59:40;17.23;;;9.23;;
7001;SDS011;3541;53.230;10.518;2024-01-10T12:02:09;18.47;;;8.53;;
7001;SDS011;3541;53.230;10.518;2024-01-10T12:04:37;16.07;;;8.77;;
7001;SDS011;3541;53.230;10.518;2024-01-10T12:07:04;15.07;;;8.07;;
7001;SDS011;3541;53.230;10.518;2024-01-10T12:09:32;11.53;;;6.67;;
7001;SDS011;3541;53.230;10.518;2024-01-10T12:11:59;13.63;;;7.60;;
7001;SDS011;3541;53.230;10.518;2024-01-10T12:14:26;11.80;;;6.87;;
7001;SDS011;3541;53.230;10.518;2024-01-10T12:16:53;13.47;;;7.07;;
7001;SDS011;3541;53.230;10.518;2024-01-10T12:19:21;12.67;;;6.60;;
7001;SDS011;3541;53.230;10.518;2024-01-10T12:21:48;11.17;;;6.17;;
7001;SDS011;3541;53.230;10.518;2024-01-10T12:24:15;11.57;;;5.97;;
7001;SDS011;3541;53.230;10.518;2024-01-10T12:26:44;10.63;;;6.07;;
7001;SDS011;3541;53.230;10.518;2024-01-10T12:29:11;12.13;;;6.77;;
7001;SDS011;3541;53.230;10.518;2024-01-10T12:31:38;10.50;;;5.93;;
7001;SDS011;3541;53.230;10.518;2024-01-10T12:34:06;9.27;;;5.83;;
7001;SDS011;3541;53.230;10.518;2024-01-10T12:36:35;9.60;;;5.60;;
7001;SDS011;3541;53.230;10.518;2024-01-10T12:39:02;10.43;;;5.47;;
7001;SDS011;3541;53.230;10.518;2024-01-10T12:41:31;10.43;;;6.03;;
7001;SDS011;3541;53.230;10.518;2024-01-10T12:43:58;9.90;;;5.87;;
7001;SDS011;3541;53.230;10.518;2024-01-10T12:46:28;10.33;;;5.83;;
7001;SDS011;3541;53.230;10.518;2024-01-10T12:48:58;9.87;;;6.07;;
7001;SDS011;3541;53.230;10.518;2024-01-10T12:51:26;7.20;;;5.27;;
7001;SDS011;3541;53.230;10.518;2024-01-10T12:53:55;10.60;;;5.70;;
7001;SDS011;3541;53.230;10.518;2024-01-10T12:56:23;12.37;;;6.80;;
7001;SDS011;3541;53.230;10.518;2024-01-10T12:58:50;10.10;;;5.93;;
7001;SDS011;3541;53.230;10.518;2024-01-10T13:01:17;12.43;;;6.47;;
7001;SDS011;3541;53.230;10.518;2024-01-10T13:03:43;10.43;;;5.80;;
7001;SDS011;3541;53.230;10.518;2024-01-10T13:06:10;10.80;;;6.57;;
7001;SDS011;3541;53.230;10.518;2024-01-10T13:08:37;12.70;;;6.80;;
7001;SDS011;3541;53.230;10.518;2024-01-10T13:11:05;11.43;;;6.33;;
7001;SDS011;3541;53.230;10.518;2024-01-10T13:13:33;35.03;;;17.17;;
7001;SDS011;3541;53.230;10.518;2024-01-10T13:16:00;12.93;;;7.53;;
7001;SDS011;3541;53.230;10.518;2024-01-10T13:18:27;11.93;;;6.33;;
7001;SDS011;3541;53.230;10.518;2024-01-10T13:20:54;11.80;;;6.50;;
7001;SDS011;3541;53.230;10.518;2024-01-10T13:23:21;9.50;;;6.17;;
7001;SDS011;3541;53.230;10.518;2024-01-10T13:25:49;9.67;;;5.67;;
7001;SDS011;3541;53.230;10.518;2024-01-10T13:28:18;11.10;;;5.70;;
7001;SDS011;3541;53.230;10.518;2024-01-10T13:30:45;10.13;;;6.20;;
7001;SDS011;3541;53.230;10.518;2024-01-10T13:33:11;13.50;;;7.40;;
7001;SDS011;3541;53.230;10.518;2024-01-10T13:35:38;14.47;;;8.33;;
7001;SDS011;3541;53.230;10.518;2024-01-10T13:38:05;11.63;;;7.30;;
7001;SDS011;3541;53.230;10.518;2024-01-10T13:40:32;12.03;;;7.07;;
7001;SDS011;3541;53.230;10.518;2024-01-10T13:43:00;10.67;;;6.43;;
7001;SDS011;3541;53.230;10.518;2024-01-10T13:45:29;12.13;;;6.93;;
7001;SDS011;3541;53.230;10.518;2024-01-10T13:47:56;12.03;;;7.27;;
7001;SDS011;3541;53.230;10.518;2024-01-10T13:50:22;11.20;;;6.53;;
7001;SDS011;3541;53.230;10.518;2024-01-10T13:52:50;14.10;;;7.10;;
7001;SDS011;3541;53.230;10.518;2024-01-10T13:55:18;11.97;;;7.23;;
7001;SDS011;3541;53.230;10.518;2024-01-10T13:57:45;11.37;;;7.00;;
7001;SDS011;3541;53.230;10.518;2024-01-10T14:00:12;13.67;;;7.43;;
7001;SDS011;3541;53.230;10.518;2024-01-10T14:02:41;15.10;;;7.57;;
7001;SDS011;3541;53.230;10.518;2024-01-10T14:05:08;15.67;;;8.80;;
7001;SDS011;3541;53.230;10.518;2024-01-10T14:07:35;17.87;;;7.97;;
7001;SDS011;3541;53.230;10.518;2024-01-10T14:10:02;14.60;;;7.67;;
7001;SDS011;3541;53.230;10.518;2024-01-10T14:12:29;14.77;;;8.37;;
7001;SDS011;3541;53.230;10.518;2024-01-10T14:14:56;14.77;;;8.27;;
7001;SDS011;3541;53.230;10.518;2024-01-10T14:17:23;15.37;;;8.63;;
7001;SDS011;3541;53.230;10.518;2024-01-10T14:19:52;16.93;;;9.23;;
7001;SDS011;3541;53.230;10.518;2024-01-10T14:22:18;20.27;;;9.40;;
7001;SDS011;3541;53.230;10.518;2024-01-10T14:24:45;17.77;;;9.00;;
7001;SDS011;3541;53.230;10.518;2024-01-10T14:27:11;18.10;;;8.27;;
7001;SDS011;3541;53.230;10.518;2024-01-10T14:29:38;16.60;;;9.27;;
7001;SDS011;3541;53.230;10.518;2024-01-10T14:32:05;15.23;;;8.30;;
7001;SDS011;3541;53.230;10.518;2024-01-10T14:34:31;17.97;;;9.40;;
7001;SDS011;3541;53.230;10.518;2024-01-10T14:36:59;18.47;;;9.00;;
7001;SDS011;3541;53.230;10.518;2024-01-10T14:39:26;17.70;;;9.93;;
7001;SDS011;3541;53.230;10.518;2024-01-10T14:41:53;17.97;;;9.23;;
7001;SDS011;3541;53.230;10.518;2024-01-10T14:44:19;19.63;;;9.43;;
7001;SDS011;3541;53.230;10.518;2024-01-10T14:46:46;18.60;;;9.70;;
7001;SDS011;3541;53.230;10.518;2024-01-10T14:49:13;19.67;;;9.53;;